createdAt,value
2022-12-12T00:00:54.150Z,2.80
2022-12-12T00:03:21.488Z,2.90
2022-12-12T00:05:48.798Z,2.90
2022-12-12T00:08:15.983Z,2.80
2022-12-12T00:10:43.359Z,2.80
2022-12-12T00:13:10.491Z,2.73
2022-12-12T00:15:37.693Z,2.80
2022-12-12T00:18:04.862Z,2.97
2022-12-12T00:20:31.980Z,2.97
2022-12-12T00:22:59.105Z,3.20
2022-12-12T00:25:26.230Z,3.03
2022-12-12T00:27:53.364Z,3.40
2022-12-12T00:30:20.511Z,3.00
2022-12-12T00:32:47.614Z,3.10
2022-12-12T00:35:15.057Z,2.97
2022-12-12T00:37:42.273Z,3.30
2022-12-12T00:40:10.526Z,3.13
2022-12-12T00:42:37.652Z,2.97
2022-12-12T00:45:04.880Z,3.00
2022-12-12T00:47:32.217Z,3.30
2022-12-12T00:49:59.334Z,3.27
2022-12-12T00:52:26.509Z,3.10
2022-12-12T00:54:53.643Z,3.40
2022-12-12T00:57:20.881Z,3.40
2022-12-12T00:59:48.026Z,3.10
2022-12-12T01:02:15.162Z,3.40
2022-12-12T01:04:42.286Z,3.27
2022-12-12T01:07:09.386Z,3.50
2022-12-12T01:09:36.553Z,3.57
2022-12-12T01:12:03.730Z,3.40
2022-12-12T01:14:30.845Z,3.23
2022-12-12T01:16:58.112Z,3.13
2022-12-12T01:19:25.249Z,3.30
2022-12-12T01:21:52.391Z,3.27
2022-12-12T01:24:19.542Z,3.50
2022-12-12T01:26:46.684Z,3.40
2022-12-12T01:29:13.831Z,3.33
2022-12-12T01:31:41.150Z,3.77
2022-12-12T01:34:08.328Z,3.20
2022-12-12T01:36:35.510Z,3.20
2022-12-12T01:39:03.222Z,3.37
2022-12-12T01:41:30.602Z,3.53
2022-12-12T01:44:00.994Z,3.53
2022-12-12T01:46:33.674Z,3.90
2022-12-12T01:49:21.174Z,3.30
2022-12-12T01:51:48.962Z,3.63
2022-12-12T01:54:20.489Z,3.73
2022-12-12T01:56:48.446Z,3.80
2022-12-12T01:59:16.722Z,3.53
2022-12-12T02:01:44.379Z,3.70
2022-12-12T02:04:12.087Z,3.63
2022-12-12T02:06:39.728Z,3.63
2022-12-12T02:09:09.059Z,3.73
2022-12-12T02:11:38.881Z,3.50
2022-12-12T02:14:06.068Z,3.60
2022-12-12T02:16:33.293Z,3.60
2022-12-12T02:19:06.708Z,3.87
2022-12-12T02:21:36.980Z,3.97
2022-12-12T02:24:06.822Z,3.70
2022-12-12T02:26:33.913Z,3.37
2022-12-12T02:29:10.313Z,3.90
2022-12-12T02:31:37.512Z,4.00
2022-12-12T02:34:25.697Z,3.80
2022-12-12T02:37:07.909Z,2.93
2022-12-12T02:39:35.072Z,3.60
2022-12-12T02:42:07.346Z,2.20
2022-12-12T02:44:35.270Z,2.97
2022-12-12T02:47:02.521Z,3.50
2022-12-12T02:49:31.974Z,3.23
2022-12-12T02:51:59.919Z,3.40
2022-12-12T02:54:27.074Z,3.70
2022-12-12T02:56:55.795Z,4.10
2022-12-12T02:59:37.569Z,3.37
2022-12-12T03:02:19.657Z,3.60
2022-12-12T03:05:28.399Z,3.63
2022-12-12T03:07:58.395Z,3.70
2022-12-12T03:10:26.188Z,3.13
2022-12-12T03:13:05.603Z,3.57
2022-12-12T03:16:06.608Z,3.53
2022-12-12T03:18:37.360Z,3.50
2022-12-12T03:21:07.266Z,3.30
2022-12-12T03:23:39.850Z,3.40
2022-12-12T03:26:25.733Z,2.87
2022-12-12T03:28:59.818Z,3.00
2022-12-12T03:31:30.979Z,3.20
2022-12-12T03:33:59.899Z,3.57
2022-12-12T03:36:29.298Z,3.30
2022-12-12T03:39:06.136Z,3.40
2022-12-12T03:41:36.735Z,3.60
2022-12-12T03:44:12.076Z,3.03
2022-12-12T03:46:49.347Z,3.43
2022-12-12T03:49:28.390Z,3.00
2022-12-12T03:52:08.869Z,3.47
2022-12-12T03:54:42.495Z,3.00
2022-12-12T03:57:14.255Z,2.90
2022-12-12T03:59:50.757Z,3.10
2022-12-12T04:02:29.686Z,3.50
2022-12-12T04:05:12.345Z,3.17
2022-12-12T04:07:45.536Z,2.60
2022-12-12T04:10:31.290Z,2.53
2022-12-12T04:13:27.478Z,2.63
2022-12-12T04:16:01.135Z,2.50
2022-12-12T04:18:31.176Z,2.23
2022-12-12T04:21:35.307Z,2.50
2022-12-12T04:24:11.353Z,2.70
2022-12-12T04:26:41.897Z,2.33
2022-12-12T04:29:09.088Z,2.63
2022-12-12T04:31:41.248Z,2.63
2022-12-12T04:34:14.662Z,2.67
2022-12-12T04:36:44.181Z,2.50
2022-12-12T04:39:12.820Z,2.50
2022-12-12T04:41:41.639Z,2.50
2022-12-12T04:44:10.713Z,2.73
2022-12-12T04:46:38.894Z,2.70
2022-12-12T04:49:08.136Z,2.63
2022-12-12T04:51:42.506Z,2.70
2022-12-12T04:54:09.654Z,2.60
2022-12-12T04:56:37.963Z,2.97
2022-12-12T04:59:05.418Z,2.70
2022-12-12T05:01:49.580Z,3.20
2022-12-12T05:04:26.219Z,3.00
2022-12-12T05:06:55.892Z,2.60
2022-12-12T05:09:23.040Z,2.60
2022-12-12T05:11:50.226Z,2.60
2022-12-12T05:14:18.425Z,2.60
2022-12-12T05:16:48.154Z,2.50
2022-12-12T05:19:15.370Z,2.63
2022-12-12T05:21:42.511Z,2.70
2022-12-12T05:24:10.076Z,2.70
2022-12-12T05:26:37.546Z,2.50
2022-12-12T05:29:07.543Z,2.30
2022-12-12T05:31:35.226Z,2.73
2022-12-12T05:34:02.382Z,2.60
2022-12-12T05:36:29.571Z,2.23
2022-12-12T05:38:56.706Z,2.50
2022-12-12T05:41:23.875Z,2.67
2022-12-12T05:43:51.112Z,2.57
2022-12-12T05:46:18.328Z,2.70
2022-12-12T05:48:50.391Z,2.97
2022-12-12T05:51:20.937Z,2.67
2022-12-12T05:53:48.107Z,2.90
2022-12-12T05:56:15.332Z,3.17
2022-12-12T05:58:42.879Z,3.00
2022-12-12T06:01:10.219Z,2.80
2022-12-12T06:03:37.432Z,3.10
2022-12-12T06:06:04.718Z,2.67
2022-12-12T06:08:31.961Z,3.03
2022-12-12T06:10:59.106Z,3.10
2022-12-12T06:13:26.234Z,2.80
2022-12-12T06:15:53.447Z,3.23
2022-12-12T06:18:20.610Z,2.87
2022-12-12T06:20:47.848Z,2.87
2022-12-12T06:23:15.027Z,3.13
2022-12-12T06:25:42.281Z,3.00
2022-12-12T06:28:09.464Z,3.00
2022-12-12T06:30:36.579Z,2.97
2022-12-12T06:33:03.977Z,3.37
2022-12-12T06:35:31.108Z,2.97
2022-12-12T06:37:58.209Z,2.70
2022-12-12T06:40:25.358Z,2.50
2022-12-12T06:42:52.511Z,2.90
2022-12-12T06:45:19.678Z,2.40
2022-12-12T06:47:46.813Z,2.80
2022-12-12T06:50:15.839Z,2.80
2022-12-12T06:52:45.031Z,3.30
2022-12-12T06:55:12.387Z,2.80
2022-12-12T06:57:39.723Z,3.83
2022-12-12T07:00:07.110Z,3.37
2022-12-12T07:02:34.290Z,3.27
2022-12-12T07:05:01.516Z,3.20
2022-12-12T07:07:28.642Z,3.23
2022-12-12T07:09:55.796Z,3.10
2022-12-12T07:12:22.907Z,2.97
2022-12-12T07:14:50.022Z,2.90
2022-12-12T07:17:17.152Z,2.90
2022-12-12T07:19:44.409Z,2.63
2022-12-12T07:22:11.603Z,3.10
2022-12-12T07:24:38.807Z,3.00
2022-12-12T07:27:06.801Z,3.10
2022-12-12T07:29:34.003Z,2.93
2022-12-12T07:32:01.144Z,2.90
2022-12-12T07:34:30.061Z,2.90
2022-12-12T07:37:02.556Z,2.83
2022-12-12T07:39:31.110Z,3.20
2022-12-12T07:41:58.241Z,3.10
2022-12-12T07:44:25.653Z,2.93
2022-12-12T07:46:52.954Z,3.23
2022-12-12T07:49:20.145Z,2.97
2022-12-12T07:51:49.259Z,3.10
2022-12-12T07:54:16.760Z,3.20
2022-12-12T07:56:44.050Z,3.13
2022-12-12T07:59:11.985Z,2.97
2022-12-12T08:01:39.319Z,3.20
2022-12-12T08:04:06.500Z,3.03
2022-12-12T08:06:33.656Z,2.73
2022-12-12T08:09:00.862Z,3.27
2022-12-12T08:11:28.055Z,3.17
2022-12-12T08:13:55.294Z,3.30
2022-12-12T08:16:23.822Z,3.40
2022-12-12T08:18:54.062Z,3.10
2022-12-12T08:21:25.838Z,3.20
2022-12-12T08:23:57.809Z,2.90
2022-12-12T08:26:26.074Z,3.17
2022-12-12T08:28:53.482Z,2.90
2022-12-12T08:31:21.409Z,2.77
2022-12-12T08:33:50.803Z,3.33
2022-12-12T08:36:22.586Z,3.13
2022-12-12T08:38:50.190Z,3.13
2022-12-12T08:41:18.056Z,3.00
2022-12-12T08:43:45.743Z,2.90
2022-12-12T08:46:17.817Z,3.20
2022-12-12T08:48:45.239Z,2.90
2022-12-12T08:51:12.378Z,2.90
2022-12-12T08:53:39.507Z,2.90
2022-12-12T08:56:06.855Z,3.20
2022-12-12T08:58:33.965Z,2.77
2022-12-12T09:01:01.212Z,3.03
2022-12-12T09:03:29.767Z,3.03
2022-12-12T09:05:57.220Z,3.00
2022-12-12T09:08:24.476Z,3.13
2022-12-12T09:10:51.769Z,2.90
2022-12-12T09:13:19.979Z,2.90
2022-12-12T09:15:50.488Z,3.30
2022-12-12T09:18:17.659Z,3.60
2022-12-12T09:20:48.561Z,3.30
2022-12-12T09:23:16.363Z,3.30
2022-12-12T09:25:43.770Z,3.47
2022-12-12T09:28:15.205Z,3.27
2022-12-12T09:30:42.516Z,3.83
2022-12-12T09:33:09.769Z,3.80
2022-12-12T09:35:37.142Z,3.63
2022-12-12T09:38:08.159Z,3.30
2022-12-12T09:40:47.327Z,3.80
2022-12-12T09:43:17.074Z,3.93
2022-12-12T09:45:44.493Z,3.10
2022-12-12T09:48:13.676Z,3.43
2022-12-12T09:50:42.083Z,2.93
2022-12-12T09:53:14.151Z,3.87
2022-12-12T09:55:47.745Z,3.13
2022-12-12T09:58:14.863Z,2.77
2022-12-12T10:00:43.293Z,3.10
2022-12-12T10:03:16.710Z,3.10
2022-12-12T10:06:01.973Z,3.37
2022-12-12T10:08:49.208Z,3.20
2022-12-12T10:11:47.221Z,3.03
2022-12-12T10:14:14.730Z,3.13
2022-12-12T10:16:42.100Z,3.30
2022-12-12T10:19:29.686Z,3.23
2022-12-12T10:21:58.857Z,3.07
2022-12-12T10:24:33.860Z,3.27
2022-12-12T10:27:09.299Z,3.17
2022-12-12T10:29:41.437Z,3.23
2022-12-12T10:32:14.013Z,2.70
2022-12-12T10:34:55.296Z,3.40
2022-12-12T10:37:22.493Z,3.17
2022-12-12T10:39:49.618Z,3.00
2022-12-12T10:42:31.410Z,2.70
2022-12-12T10:45:07.946Z,3.10
2022-12-12T10:47:35.332Z,2.30
2022-12-12T10:50:22.844Z,2.90
2022-12-12T10:52:50.091Z,2.67
2022-12-12T10:55:22.496Z,3.10
2022-12-12T10:58:01.231Z,2.90
2022-12-12T11:00:31.695Z,3.20
2022-12-12T11:03:00.304Z,2.83
2022-12-12T11:05:29.701Z,2.83
2022-12-12T11:08:07.395Z,3.30
2022-12-12T11:10:36.071Z,2.73
2022-12-12T11:13:13.823Z,3.00
2022-12-12T11:15:44.879Z,2.17
2022-12-12T11:18:20.041Z,2.80
2022-12-12T11:21:07.474Z,3.00
2022-12-12T11:23:35.972Z,2.80
2022-12-12T11:26:13.622Z,2.50
2022-12-12T11:28:41.361Z,2.37
2022-12-12T11:31:10.676Z,2.33
2022-12-12T11:33:45.575Z,2.67
2022-12-12T11:36:17.365Z,2.63
2022-12-12T11:39:03.349Z,2.97
2022-12-12T11:41:32.717Z,2.87
2022-12-12T11:44:01.497Z,2.20
2022-12-12T11:46:30.108Z,2.73
2022-12-12T11:49:04.493Z,2.53
2022-12-12T11:51:36.277Z,3.03
2022-12-12T11:54:05.226Z,2.77
2022-12-12T11:56:42.559Z,1.90
2022-12-12T11:59:19.712Z,2.73
2022-12-12T12:02:01.152Z,2.77
2022-12-12T12:04:49.578Z,2.60
2022-12-12T12:07:26.274Z,2.77
2022-12-12T12:10:22.534Z,2.13
2022-12-12T12:12:51.308Z,2.30
2022-12-12T12:15:21.421Z,2.00
2022-12-12T12:17:48.513Z,2.60
2022-12-12T12:20:34.486Z,1.87
2022-12-12T12:23:20.503Z,2.60
2022-12-12T12:25:50.668Z,2.77
2022-12-12T12:28:36.271Z,1.77
2022-12-12T12:31:09.457Z,2.23
2022-12-12T12:33:45.791Z,2.60
2022-12-12T12:36:35.843Z,2.67
2022-12-12T12:39:21.762Z,2.20
2022-12-12T12:41:55.614Z,2.50
2022-12-12T12:44:38.040Z,2.60
2022-12-12T12:47:10.498Z,2.70
2022-12-12T12:49:42.791Z,2.67
2022-12-12T12:52:09.866Z,2.77
2022-12-12T12:54:36.963Z,2.00
2022-12-12T12:57:25.297Z,2.37
2022-12-12T12:59:54.426Z,2.30
2022-12-12T13:02:27.194Z,2.73
2022-12-12T13:04:59.733Z,2.80
2022-12-12T13:07:40.545Z,2.40
2022-12-12T13:10:16.868Z,2.50
2022-12-12T13:12:46.576Z,2.40
2022-12-12T13:15:25.708Z,2.40
2022-12-12T13:18:09.046Z,2.00
2022-12-12T13:20:40.402Z,2.50
2022-12-12T13:23:07.536Z,1.83
2022-12-12T13:25:49.843Z,2.10
2022-12-12T13:28:21.140Z,2.00
2022-12-12T13:31:06.765Z,2.53
2022-12-12T13:33:45.646Z,2.53
2022-12-12T13:36:15.578Z,2.40
2022-12-12T13:38:47.443Z,2.70
2022-12-12T13:41:15.252Z,2.50
2022-12-12T13:43:44.089Z,2.57
2022-12-12T13:46:24.266Z,2.33
2022-12-12T13:49:06.532Z,2.57
2022-12-12T13:51:36.556Z,2.67
2022-12-12T13:54:14.517Z,3.00
2022-12-12T13:56:44.885Z,2.80
2022-12-12T13:59:26.722Z,2.97
2022-12-12T14:02:00.986Z,2.90
2022-12-12T14:04:39.591Z,2.90
2022-12-12T14:07:06.757Z,2.63
2022-12-12T14:09:47.629Z,2.97
2022-12-12T14:12:24.852Z,2.60
2022-12-12T14:15:06.009Z,2.97
2022-12-12T14:17:40.112Z,3.10
2022-12-12T14:20:24.034Z,2.90
2022-12-12T14:22:51.181Z,2.60
2022-12-12T14:25:20.323Z,2.70
2022-12-12T14:27:50.582Z,2.80
2022-12-12T14:30:18.830Z,2.53
2022-12-12T14:32:57.537Z,2.87
2022-12-12T14:35:34.533Z,2.80
2022-12-12T14:38:34.080Z,3.27
2022-12-12T14:41:02.537Z,3.07
2022-12-12T14:43:37.872Z,2.97
2022-12-12T14:46:05.134Z,2.67
2022-12-12T14:48:33.182Z,2.90
2022-12-12T14:51:00.277Z,2.57
2022-12-12T14:53:33.487Z,2.97
2022-12-12T14:56:29.743Z,2.43
2022-12-12T14:59:02.780Z,2.70
2022-12-12T15:01:32.652Z,3.10
2022-12-12T15:04:00.498Z,2.77
2022-12-12T15:06:29.193Z,2.73
2022-12-12T15:08:57.715Z,2.80
2022-12-12T15:11:26.547Z,2.73
2022-12-12T15:13:57.893Z,3.00
2022-12-12T15:16:30.997Z,2.77
2022-12-12T15:18:59.546Z,2.70
2022-12-12T15:21:27.326Z,3.10
2022-12-12T15:23:54.557Z,3.23
2022-12-12T15:26:23.710Z,3.27
2022-12-12T15:28:51.275Z,3.30
2022-12-12T15:31:19.753Z,3.33
2022-12-12T15:33:47.617Z,3.57
2022-12-12T15:36:19.644Z,3.87
2022-12-12T15:39:02.197Z,3.57
2022-12-12T15:41:29.682Z,3.67
2022-12-12T15:43:56.991Z,3.57
2022-12-12T15:46:24.290Z,3.90
2022-12-12T15:48:51.458Z,3.57
2022-12-12T15:51:24.621Z,3.13
2022-12-12T15:53:52.767Z,3.03
2022-12-12T15:56:19.910Z,2.30
2022-12-12T15:58:48.610Z,3.50
2022-12-12T16:01:20.128Z,3.13
2022-12-12T16:03:55.132Z,2.80
2022-12-12T16:06:24.265Z,3.30
2022-12-12T16:08:54.327Z,3.30
2022-12-12T16:11:31.762Z,3.00
2022-12-12T16:13:59.525Z,3.27
2022-12-12T16:16:42.568Z,3.10
2022-12-12T16:19:24.939Z,3.27
2022-12-12T16:21:52.239Z,3.63
2022-12-12T16:24:24.010Z,3.53
2022-12-12T16:26:51.400Z,3.60
2022-12-12T16:29:18.602Z,3.30
2022-12-12T16:31:46.338Z,3.57
2022-12-12T16:34:13.618Z,2.97
2022-12-12T16:36:42.345Z,3.77
2022-12-12T16:39:11.505Z,3.80
2022-12-12T16:41:38.659Z,3.30
2022-12-12T16:44:05.835Z,3.70
2022-12-12T16:46:32.958Z,3.33
2022-12-12T16:49:04.450Z,3.50
2022-12-12T16:51:33.453Z,3.77
2022-12-12T16:54:00.706Z,3.53
2022-12-12T16:56:28.012Z,3.40
2022-12-12T16:58:56.200Z,3.17
2022-12-12T17:01:23.455Z,3.70
2022-12-12T17:03:50.841Z,3.40
2022-12-12T17:06:18.066Z,3.30
2022-12-12T17:08:45.205Z,3.17
2022-12-12T17:11:12.913Z,3.13
2022-12-12T17:13:42.921Z,3.20
2022-12-12T17:16:10.131Z,3.60
2022-12-12T17:18:38.159Z,3.60
2022-12-12T17:21:06.060Z,3.33
2022-12-12T17:23:33.218Z,3.23
2022-12-12T17:26:04.249Z,3.30
2022-12-12T17:28:32.443Z,3.30
2022-12-12T17:30:59.702Z,3.30
2022-12-12T17:33:27.194Z,3.60
2022-12-12T17:35:57.871Z,3.13
2022-12-12T17:38:25.165Z,3.27
2022-12-12T17:40:53.947Z,4.53
2022-12-12T17:43:21.275Z,3.83
2022-12-12T17:45:57.148Z,3.50
2022-12-12T17:48:24.335Z,3.23
2022-12-12T17:51:01.307Z,3.80
2022-12-12T17:53:32.294Z,3.77
2022-12-12T17:56:01.605Z,3.33
2022-12-12T17:58:36.464Z,3.90
2022-12-12T18:01:10.716Z,3.20
2022-12-12T18:03:37.903Z,3.20
2022-12-12T18:06:05.114Z,2.80
2022-12-12T18:08:32.370Z,3.27
2022-12-12T18:10:59.677Z,3.40
2022-12-12T18:13:27.121Z,3.10
2022-12-12T18:15:57.954Z,3.20
2022-12-12T18:18:25.934Z,3.30
2022-12-12T18:20:53.232Z,3.40
2022-12-12T18:23:20.722Z,3.23
2022-12-12T18:25:47.926Z,4.00
2022-12-12T18:28:15.047Z,2.93
2022-12-12T18:30:42.313Z,3.23
2022-12-12T18:33:09.949Z,3.47
2022-12-12T18:35:37.154Z,3.20
2022-12-12T18:38:04.278Z,3.00
2022-12-12T18:40:31.461Z,2.80
2022-12-12T18:42:58.599Z,3.00
2022-12-12T18:45:25.754Z,2.90
2022-12-12T18:47:52.934Z,3.00
2022-12-12T18:50:20.212Z,3.20
2022-12-12T18:52:47.471Z,3.17
2022-12-12T18:55:14.580Z,2.83
2022-12-12T18:57:41.734Z,3.13
2022-12-12T19:00:09.046Z,2.93
2022-12-12T19:02:38.532Z,3.07
2022-12-12T19:05:06.899Z,3.30
2022-12-12T19:07:34.247Z,2.90
2022-12-12T19:10:01.432Z,3.30
2022-12-12T19:12:28.764Z,3.07
2022-12-12T19:17:43.314Z,3.10
2022-12-12T19:20:12.704Z,3.07
2022-12-12T19:22:47.316Z,3.27
2022-12-12T19:25:18.308Z,3.00
2022-12-12T19:27:45.941Z,2.97
2022-12-12T19:30:14.502Z,2.80
2022-12-12T19:32:41.888Z,2.93
2022-12-12T19:35:09.980Z,3.40
2022-12-12T19:37:37.294Z,2.93
2022-12-12T19:40:04.570Z,2.90
2022-12-12T19:42:31.700Z,3.07
2022-12-12T19:44:58.817Z,3.20
2022-12-12T19:47:27.287Z,3.40
2022-12-12T19:49:54.824Z,3.23
2022-12-12T19:52:22.320Z,2.97
2022-12-12T19:54:49.444Z,3.37
2022-12-12T19:57:16.582Z,3.30
2022-12-12T19:59:43.722Z,2.97
2022-12-12T20:02:12.127Z,2.97
2022-12-12T20:04:39.451Z,3.60
2022-12-12T20:07:06.571Z,3.40
2022-12-12T20:09:35.215Z,3.13
2022-12-12T20:12:02.521Z,3.03
2022-12-12T20:14:31.103Z,3.30
2022-12-12T20:16:59.212Z,3.80
2022-12-12T20:19:27.216Z,4.30
2022-12-12T20:22:03.150Z,3.10
2022-12-12T20:24:32.267Z,3.00
2022-12-12T20:27:00.085Z,3.10
2022-12-12T20:29:27.452Z,3.17
2022-12-12T20:31:54.673Z,3.20
2022-12-12T20:34:24.396Z,3.27
2022-12-12T20:36:52.111Z,3.13
2022-12-12T20:39:22.249Z,3.07
2022-12-12T20:41:50.724Z,2.93
2022-12-12T20:44:18.071Z,3.10
2022-12-12T20:46:45.933Z,2.70
2022-12-12T20:49:17.905Z,3.10
2022-12-12T20:52:00.664Z,3.50
2022-12-12T20:54:28.991Z,3.10
2022-12-12T20:56:56.977Z,3.10
2022-12-12T20:59:24.275Z,3.27
2022-12-12T21:01:51.613Z,3.03
2022-12-12T21:04:18.949Z,2.90
2022-12-12T21:06:48.627Z,3.07
2022-12-12T21:09:23.261Z,3.20
2022-12-12T21:11:52.306Z,2.90
2022-12-12T21:14:19.480Z,2.83
2022-12-12T21:16:46.629Z,2.97
2022-12-12T21:19:14.851Z,2.97
2022-12-12T21:21:42.817Z,3.07
2022-12-12T21:24:10.855Z,3.10
2022-12-12T21:26:38.057Z,3.57
2022-12-12T21:29:05.854Z,3.50
2022-12-12T21:31:34.271Z,3.47
2022-12-12T21:34:01.444Z,3.50
2022-12-12T21:36:29.044Z,3.30
2022-12-12T21:38:57.004Z,2.73
2022-12-12T21:41:24.628Z,3.27
2022-12-12T21:43:52.131Z,2.70
2022-12-12T21:46:20.825Z,2.97
2022-12-12T21:49:08.513Z,3.00
2022-12-12T21:51:36.001Z,2.60
2022-12-12T21:54:03.696Z,2.87
2022-12-12T21:56:31.157Z,2.80
2022-12-12T21:58:58.780Z,3.00
2022-12-12T22:01:25.996Z,2.60
2022-12-12T22:03:54.232Z,2.67
2022-12-12T22:06:25.795Z,2.83
2022-12-12T22:08:55.221Z,2.73
2022-12-12T22:11:34.042Z,2.73
2022-12-12T22:14:09.770Z,2.70
2022-12-12T22:16:37.615Z,2.60
2022-12-12T22:19:08.506Z,2.50
2022-12-12T22:21:35.989Z,2.70
2022-12-12T22:24:03.772Z,2.73
2022-12-12T22:26:32.462Z,2.60
2022-12-12T22:29:00.569Z,2.60
2022-12-12T22:31:29.535Z,2.90
2022-12-12T22:33:59.438Z,2.90
2022-12-12T22:36:30.574Z,2.80
2022-12-12T22:38:58.157Z,3.13
2022-12-12T22:41:25.786Z,2.60
2022-12-12T22:43:54.004Z,2.97
2022-12-12T22:46:21.951Z,2.90
2022-12-12T22:48:49.246Z,2.77
2022-12-12T22:51:17.252Z,2.90
2022-12-12T22:53:44.675Z,2.80
2022-12-12T22:56:12.335Z,2.67
2022-12-12T22:58:39.649Z,2.90
2022-12-12T23:01:07.995Z,2.60
2022-12-12T23:03:35.390Z,2.80
2022-12-12T23:06:06.573Z,2.80
2022-12-12T23:08:34.267Z,2.80
2022-12-12T23:11:08.453Z,3.00
2022-12-12T23:13:35.712Z,2.80
2022-12-12T23:16:06.894Z,2.80
2022-12-12T23:18:34.205Z,2.70
2022-12-12T23:21:01.535Z,2.90
2022-12-12T23:23:30.241Z,2.80
2022-12-12T23:25:57.358Z,2.90
2022-12-12T23:28:24.494Z,2.90
2022-12-12T23:30:51.668Z,2.93
2022-12-12T23:33:18.837Z,2.83
2022-12-12T23:35:49.542Z,2.73
2022-12-12T23:38:17.008Z,2.70
2022-12-12T23:40:44.391Z,2.83
2022-12-12T23:43:11.557Z,3.00
2022-12-12T23:45:38.998Z,2.87
2022-12-12T23:48:06.791Z,2.70
2022-12-12T23:50:34.446Z,2.80
2022-12-12T23:53:06.183Z,2.87
2022-12-12T23:55:36.252Z,2.63
2022-12-12T23:58:03.374Z,2.70
